John Quigg — WDB9828 — position and weather

sailwx.info

Track history (hours):
 
Tides and Currents Weather Stations Pressure Air Temp Water Temp Dewpoint Dewpoint Depression Visibility Wind Speed Wind Dir Waves Ship Positions

John Quigg

Owner: Harley Marine Services, Inc, Seattle, WA. More information available from US FCC via Universal Licensing System and Coast Guard Vessel Documentation Center.

Last reported at 2016-Jun-28 13:26 UTC. Time now 2016-Jun-28 15:12 UTC.
Position N 33°44' W 118°16'.

Length 27 m.

MMSI: 365934954.

Date/timePositionNaut miles runAvg speedWind from/ knotsBaromVisibWave heightAir tempDewpointWater temp
2016-Jun-28 13:26N 33°44' W 118°16'2 2.1
2016-Jun-28 12:34N 33°46' W 118°15'1 1.1
2016-Jun-28 11:33N 33°45' W 118°16'1 0.9
2016-Jun-28 10:33N 33°44' W 118°17'2 1.9
2016-Jun-28 09:28N 33°43' W 118°15'2 2.2
2016-Jun-28 08:33N 33°44' W 118°13'3 2.5
2016-Jun-28 07:32N 33°44' W 118°16'0 0.0
2016-Jun-28 06:33N 33°44' W 118°16'8 0.5
2016-Jun-27 14:33N 33°44' W 118°06'2 2.3
2016-Jun-27 13:33N 33°44' W 118°08'7 5.1
2016-Jun-27 12:14N 33°45' W 118°16'1 0.8
2016-Jun-27 11:33N 33°45' W 118°16'2 1.3
2016-Jun-27 10:17N 33°44' W 118°16'2 0.3
2016-Jun-27 02:27N 33°45' W 118°13'0 0.2
2016-Jun-27 01:33N 33°45' W 118°13'2 0.3
2016-Jun-26 17:30N 33°45' W 118°16'4 0.2
2016-Jun-25 20:33N 33°44' W 118°12'1 0.2
2016-Jun-25 15:33N 33°45' W 118°11'0 0.1
2016-Jun-25 14:33N 33°45' W 118°11'1 0.9
2016-Jun-25 13:17N 33°45' W 118°12'1 1.4
2016-Jun-25 12:33N 33°46' W 118°13'0 0.4
2016-Jun-25 11:34N 33°46' W 118°13'3 0.1
2016-Jun-24 13:16N 33°45' W 118°17'1 1.3
2016-Jun-24 12:28N 33°44' W 118°17'1 1.1
2016-Jun-24 11:30N 33°44' W 118°16'2 0.1
2016-Jun-23 14:31N 33°45' W 118°16'1 0.5
2016-Jun-23 13:33N 33°45' W 118°16'0 0.1
2016-Jun-23 12:33N 33°45' W 118°16'2 0.2
2016-Jun-23 00:22N 33°43' W 118°16'3 3.1
2016-Jun-22 23:33N 33°46' W 118°16'1 0.9
2016-Jun-22 22:33N 33°45' W 118°16'3 2.7
2016-Jun-22 21:33N 33°43' W 118°14'2 1.3
2016-Jun-22 20:07N 33°44' W 118°16'0 0.0
2016-Jun-22 19:31N 33°44' W 118°16'3 3.7
2016-Jun-22 18:34N 33°46' W 118°13'0 0.4
2016-Jun-22 17:33N 33°46' W 118°13'3 3.1
2016-Jun-22 16:33N 33°44' W 118°11'1 1.0
2016-Jun-22 15:33N 33°44' W 118°12'2 2.1
2016-Jun-22 14:34N 33°46' W 118°13'2 1.7
2016-Jun-22 13:15N 33°44' W 118°12'1 1.4
2016-Jun-22 12:32N 33°45' W 118°12'0 0.0
2016-Jun-22 11:24N 33°45' W 118°12'0 0.3
2016-Jun-22 10:23N 33°45' W 118°13'1 0.1
2016-Jun-21 23:04N 33°44' W 118°12'0 0.5
2016-Jun-21 22:33N 33°44' W 118°12'3 2.8
2016-Jun-21 21:33N 33°44' W 118°16'0 0.0
2016-Jun-21 15:32N 33°44' W 118°16'2 0.7
2016-Jun-21 12:31N 33°44' W 118°13'0 0.0
2016-Jun-21 11:32N 33°44' W 118°13'0 0.0
2016-Jun-21 09:32N 33°44' W 118°13'0 0.1
2016-Jun-21 08:33N 33°43' W 118°13'3 2.8
2016-Jun-21 07:33N 33°45' W 118°16'1 0.7
2016-Jun-21 06:33N 33°46' W 118°15'2 0.3
2016-Jun-20 23:22N 33°44' W 118°16'0 0.1
2016-Jun-20 22:33N 33°44' W 118°16'1 1.5
2016-Jun-20 21:34N 33°43' W 118°15'1 1.5
2016-Jun-20 20:32N 33°44' W 118°16'0 0.0
2016-Jun-20 16:14N 33°44' W 118°16'0 0.0
2016-Jun-20 15:33N 33°44' W 118°16'0 0.0
2016-Jun-20 14:34N 33°44' W 118°16'0 0.0
2016-Jun-20 13:32N 33°44' W 118°16'4 4.2
2016-Jun-20 12:33N 33°44' W 118°11'2 2.0
2016-Jun-20 11:33N 33°43' W 118°13'2 0.1
2016-Jun-19 12:12N 33°44' W 118°16'3 4.5
2016-Jun-19 11:32N 33°44' W 118°12'2 1.6
2016-Jun-19 10:28N 33°43' W 118°14'2 0.3
2016-Jun-19 05:27N 33°44' W 118°16'2 0.8
2016-Jun-19 02:29N 33°46' W 118°14'2 2.3
2016-Jun-19 01:34N 33°45' W 118°16'1 1.1
2016-Jun-19 00:33N 33°44' W 118°16'0 0.0
2016-Jun-18 23:33N 33°44' W 118°16'0 0.0
2016-Jun-18 22:33N 33°44' W 118°16'0 0.0
2016-Jun-18 21:32N 33°44' W 118°16'1 0.7
2016-Jun-18 20:30N 33°43' W 118°16'2 1.6
2016-Jun-18 19:33N 33°43' W 118°14'3 2.6
2016-Jun-18 18:33N 33°45' W 118°16'1 1.2
2016-Jun-18 17:33N 33°44' W 118°16'0 0.0
2016-Jun-18 16:33N 33°44' W 118°16'0 0.0
2016-Jun-18 14:34N 33°44' W 118°16'3 2.6
2016-Jun-18 13:31N 33°46' W 118°14'  
Track history (hours):
 
Tides and Currents Weather Stations Pressure Air Temp Water Temp Dewpoint Dewpoint Depression Visibility Wind Speed Wind Dir Waves Ship Positions

John Quigg

Owner: Harley Marine Services, Inc, Seattle, WA. More information available from US FCC via Universal Licensing System and Coast Guard Vessel Documentation Center.

Last reported at 2016-Jun-28 13:26 UTC. Time now 2016-Jun-28 15:12 UTC.
Position N 33°44' W 118°16'.

Length 27 m.

MMSI: 365934954.

Date/timePositionNaut miles runAvg speedWind from/ knotsBaromVisibWave heightAir tempDewpointWater temp
2016-Jun-28 13:26N 33°44' W 118°16'2 2.1
2016-Jun-28 12:34N 33°46' W 118°15'1 1.1
2016-Jun-28 11:33N 33°45' W 118°16'1 0.9
2016-Jun-28 10:33N 33°44' W 118°17'2 1.9
2016-Jun-28 09:28N 33°43' W 118°15'2 2.2
2016-Jun-28 08:33N 33°44' W 118°13'3 2.5
2016-Jun-28 07:32N 33°44' W 118°16'0 0.0
2016-Jun-28 06:33N 33°44' W 118°16'8 0.5
2016-Jun-27 14:33N 33°44' W 118°06'2 2.3
2016-Jun-27 13:33N 33°44' W 118°08'7 5.1
2016-Jun-27 12:14N 33°45' W 118°16'1 0.8
2016-Jun-27 11:33N 33°45' W 118°16'2 1.3
2016-Jun-27 10:17N 33°44' W 118°16'2 0.3
2016-Jun-27 02:27N 33°45' W 118°13'0 0.2
2016-Jun-27 01:33N 33°45' W 118°13'2 0.3
2016-Jun-26 17:30N 33°45' W 118°16'4 0.2
2016-Jun-25 20:33N 33°44' W 118°12'1 0.2
2016-Jun-25 15:33N 33°45' W 118°11'0 0.1
2016-Jun-25 14:33N 33°45' W 118°11'1 0.9
2016-Jun-25 13:17N 33°45' W 118°12'1 1.4
2016-Jun-25 12:33N 33°46' W 118°13'0 0.4
2016-Jun-25 11:34N 33°46' W 118°13'3 0.1
2016-Jun-24 13:16N 33°45' W 118°17'1 1.3
2016-Jun-24 12:28N 33°44' W 118°17'1 1.1
2016-Jun-24 11:30N 33°44' W 118°16'2 0.1
2016-Jun-23 14:31N 33°45' W 118°16'1 0.5
2016-Jun-23 13:33N 33°45' W 118°16'0 0.1
2016-Jun-23 12:33N 33°45' W 118°16'2 0.2
2016-Jun-23 00:22N 33°43' W 118°16'3 3.1
2016-Jun-22 23:33N 33°46' W 118°16'1 0.9
2016-Jun-22 22:33N 33°45' W 118°16'3 2.7
2016-Jun-22 21:33N 33°43' W 118°14'2 1.3
2016-Jun-22 20:07N 33°44' W 118°16'0 0.0
2016-Jun-22 19:31N 33°44' W 118°16'3 3.7
2016-Jun-22 18:34N 33°46' W 118°13'0 0.4
2016-Jun-22 17:33N 33°46' W 118°13'3 3.1
2016-Jun-22 16:33N 33°44' W 118°11'1 1.0
2016-Jun-22 15:33N 33°44' W 118°12'2 2.1
2016-Jun-22 14:34N 33°46' W 118°13'2 1.7
2016-Jun-22 13:15N 33°44' W 118°12'1 1.4
2016-Jun-22 12:32N 33°45' W 118°12'0 0.0
2016-Jun-22 11:24N 33°45' W 118°12'0 0.3
2016-Jun-22 10:23N 33°45' W 118°13'1 0.1
2016-Jun-21 23:04N 33°44' W 118°12'0 0.5
2016-Jun-21 22:33N 33°44' W 118°12'3 2.8
2016-Jun-21 21:33N 33°44' W 118°16'0 0.0
2016-Jun-21 15:32N 33°44' W 118°16'2 0.7
2016-Jun-21 12:31N 33°44' W 118°13'0 0.0
2016-Jun-21 11:32N 33°44' W 118°13'0 0.0
2016-Jun-21 09:32N 33°44' W 118°13'0 0.1
2016-Jun-21 08:33N 33°43' W 118°13'3 2.8
2016-Jun-21 07:33N 33°45' W 118°16'1 0.7
2016-Jun-21 06:33N 33°46' W 118°15'2 0.3
2016-Jun-20 23:22N 33°44' W 118°16'0 0.1
2016-Jun-20 22:33N 33°44' W 118°16'1 1.5
2016-Jun-20 21:34N 33°43' W 118°15'1 1.5
2016-Jun-20 20:32N 33°44' W 118°16'0 0.0
2016-Jun-20 16:14N 33°44' W 118°16'0 0.0
2016-Jun-20 15:33N 33°44' W 118°16'0 0.0
2016-Jun-20 14:34N 33°44' W 118°16'0 0.0
2016-Jun-20 13:32N 33°44' W 118°16'4 4.2
2016-Jun-20 12:33N 33°44' W 118°11'2 2.0
2016-Jun-20 11:33N 33°43' W 118°13'2 0.1
2016-Jun-19 12:12N 33°44' W 118°16'3 4.5
2016-Jun-19 11:32N 33°44' W 118°12'2 1.6
2016-Jun-19 10:28N 33°43' W 118°14'2 0.3
2016-Jun-19 05:27N 33°44' W 118°16'2 0.8
2016-Jun-19 02:29N 33°46' W 118°14'2 2.3
2016-Jun-19 01:34N 33°45' W 118°16'1 1.1
2016-Jun-19 00:33N 33°44' W 118°16'0 0.0
2016-Jun-18 23:33N 33°44' W 118°16'0 0.0
2016-Jun-18 22:33N 33°44' W 118°16'0 0.0
2016-Jun-18 21:32N 33°44' W 118°16'1 0.7
2016-Jun-18 20:30N 33°43' W 118°16'2 1.6
2016-Jun-18 19:33N 33°43' W 118°14'3 2.6
2016-Jun-18 18:33N 33°45' W 118°16'1 1.2
2016-Jun-18 17:33N 33°44' W 118°16'0 0.0
2016-Jun-18 16:33N 33°44' W 118°16'0 0.0
2016-Jun-18 14:34N 33°44' W 118°16'3 2.6
2016-Jun-18 13:31N 33°46' W 118°14'  

Dump ship's entire track history